createdAt,value
2019-05-12T00:34:24.600Z,95.50
2019-05-12T00:49:30.698Z,95.50
2019-05-12T00:52:01.870Z,95.20
2019-05-12T00:54:33.153Z,95.50
2019-05-12T00:57:04.374Z,95.00
2019-05-12T00:59:35.515Z,95.00
2019-05-12T01:02:07.986Z,94.60
2019-05-12T01:04:39.302Z,94.70
2019-05-12T01:07:10.521Z,94.70
2019-05-12T01:09:41.827Z,95.00
2019-05-12T01:12:13.078Z,94.20
2019-05-12T01:14:44.410Z,94.30
2019-05-12T01:17:17.669Z,94.00
2019-05-12T01:19:48.619Z,94.00
2019-05-12T01:22:19.639Z,93.80
2019-05-12T01:24:50.509Z,93.40
2019-05-12T01:27:21.502Z,93.50
2019-05-12T01:29:52.723Z,93.30
2019-05-12T01:32:31.709Z,93.10
2019-05-12T01:35:03.030Z,93.20
2019-05-12T01:37:35.162Z,93.00
2019-05-12T01:40:08.758Z,93.10
2019-05-12T01:42:39.899Z,93.40
2019-05-12T01:45:11.191Z,93.30
2019-05-12T01:47:42.760Z,93.30
2019-05-12T01:50:13.984Z,93.40
2019-05-12T01:52:45.130Z,93.40
2019-05-12T01:55:18.437Z,93.70
2019-05-12T01:57:49.259Z,93.50
2019-05-12T02:00:20.923Z,93.20
2019-05-12T02:02:52.054Z,93.60
2019-05-12T02:05:23.313Z,93.70
2019-05-12T02:07:58.099Z,93.60
2019-05-12T02:10:28.950Z,93.40
2019-05-12T02:13:00.161Z,93.30
2019-05-12T02:15:31.322Z,93.10
2019-05-12T02:18:02.194Z,93.20
2019-05-12T02:20:33.086Z,93.20
2019-05-12T02:23:04.020Z,93.40
2019-05-12T02:25:37.846Z,93.30
2019-05-12T02:28:09.149Z,93.30
2019-05-12T02:30:42.013Z,93.50
2019-05-12T02:33:15.911Z,93.40
2019-05-12T02:35:46.210Z,93.50
2019-05-12T02:38:17.075Z,93.60
2019-05-12T02:40:48.303Z,93.50
2019-05-12T02:43:19.527Z,93.30
2019-05-12T02:45:50.705Z,93.40
2019-05-12T02:48:24.522Z,93.50
2019-05-12T02:50:54.970Z,93.50
2019-05-12T02:53:26.329Z,93.60
2019-05-12T02:55:57.414Z,93.60
2019-05-12T02:58:29.605Z,93.70
2019-05-12T03:01:05.507Z,93.70
2019-05-12T03:03:37.452Z,93.70
2019-05-12T03:06:08.825Z,93.60
2019-05-12T03:08:40.248Z,93.50
2019-05-12T03:11:14.778Z,93.80
2019-05-12T03:13:44.994Z,94.20
2019-05-12T03:16:16.053Z,94.40
2019-05-12T03:18:47.392Z,93.90
2019-05-12T03:21:18.576Z,93.50
2019-05-12T03:46:26.924Z,93.10
2019-05-12T03:48:57.780Z,92.50
2019-05-12T03:51:29.048Z,92.90
2019-05-12T03:59:04.442Z,92.80
2019-05-12T04:01:36.550Z,92.80
2019-05-12T04:19:09.491Z,92.70
2019-05-12T04:21:44.367Z,91.30
2019-05-12T04:24:14.560Z,91.40
2019-05-12T05:16:57.320Z,91.50
2019-05-12T05:19:28.239Z,81.70
2019-05-12T05:29:29.888Z,80.30
2019-05-12T05:32:00.839Z,81.20
2019-05-12T05:34:34.299Z,81.70
2019-05-12T05:37:05.612Z,81.90
2019-05-12T05:42:08.428Z,82.70
2019-05-12T05:44:39.328Z,82.80
2019-05-12T05:49:40.574Z,82.20
2019-05-12T05:52:13.723Z,77.00
2019-05-12T05:54:44.679Z,75.70
2019-05-12T05:57:20.024Z,75.50
2019-05-12T05:59:48.489Z,73.10
2019-05-12T06:02:25.400Z,70.80
2019-05-12T06:07:34.478Z,69.80
2019-05-12T06:09:56.340Z,74.70
2019-05-12T06:17:30.622Z,75.20
2019-05-12T06:20:01.533Z,67.20
2019-05-12T06:22:34.275Z,62.10
2019-05-12T06:25:06.736Z,61.70
2019-05-12T06:27:37.589Z,62.10
2019-05-12T06:30:09.707Z,61.90
2019-05-12T06:32:41.225Z,63.80
2019-05-12T06:35:14.952Z,68.40
2019-05-12T06:37:57.420Z,66.40
2019-05-12T06:40:19.115Z,65.30
2019-05-12T06:42:54.183Z,64.20
2019-05-12T06:45:23.502Z,60.20
2019-05-12T06:50:28.569Z,60.30
2019-05-12T06:55:49.340Z,59.20
2019-05-12T06:58:29.617Z,57.30
2019-05-12T07:00:54.119Z,55.10
2019-05-12T07:03:30.356Z,53.20
2019-05-12T07:05:57.367Z,54.90
2019-05-12T07:08:32.794Z,54.10
2019-05-12T07:11:03.716Z,51.20
2019-05-12T07:13:34.314Z,49.80
2019-05-12T07:16:23.151Z,52.00
2019-05-12T07:18:50.482Z,51.60
2019-05-12T07:21:26.505Z,53.60
2019-05-12T07:23:54.250Z,51.30
2019-05-12T07:26:25.056Z,49.50
2019-05-12T07:28:55.909Z,50.30
2019-05-12T07:31:26.825Z,50.80
2019-05-12T07:33:59.393Z,52.00
2019-05-12T07:36:33.257Z,54.70
2019-05-12T07:39:08.566Z,53.00
2019-05-12T07:41:42.394Z,52.90
2019-05-12T07:44:15.213Z,50.90
2019-05-12T07:46:49.457Z,48.20
2019-05-12T07:49:22.642Z,47.90
2019-05-12T07:51:51.289Z,46.70
2019-05-12T07:54:23.564Z,47.10
2019-05-12T07:56:55.813Z,50.50
2019-05-12T07:59:34.552Z,50.80
2019-05-12T08:01:59.247Z,49.90
2019-05-12T08:04:31.655Z,48.80
2019-05-12T08:07:03.929Z,45.70
2019-05-12T08:09:36.406Z,44.50
2019-05-12T08:12:09.736Z,44.10
2019-05-12T08:14:43.802Z,45.50
2019-05-12T08:17:19.305Z,47.90
2019-05-12T08:19:47.560Z,46.20
2019-05-12T08:22:24.052Z,46.80
2019-05-12T08:24:53.801Z,46.70
2019-05-12T08:27:24.324Z,46.40
2019-05-12T08:42:30.284Z,46.20
2019-05-12T08:52:37.126Z,44.20
2019-05-12T08:55:07.451Z,47.60
2019-05-12T08:57:40.651Z,46.20
2019-05-12T09:07:46.062Z,47.60
2019-05-12T09:10:17.020Z,50.50
2019-05-12T09:17:52.526Z,48.60
2019-05-12T09:20:20.470Z,48.90
2019-05-12T09:30:30.363Z,51.30
2019-05-12T09:33:03.730Z,51.40
2019-05-12T09:38:06.263Z,51.30
2019-05-12T09:48:11.199Z,54.40
2019-05-12T09:55:46.012Z,50.90
2019-05-12T09:58:23.095Z,53.10
2019-05-12T10:05:50.460Z,53.90
2019-05-12T10:08:23.966Z,53.70
2019-05-12T10:13:28.916Z,54.30
2019-05-12T10:15:58.641Z,54.30
2019-05-12T10:21:04.241Z,54.00
2019-05-12T10:23:35.426Z,55.30
2019-05-12T10:26:14.594Z,53.90
2019-05-12T10:28:52.041Z,54.10
2019-05-12T10:36:21.952Z,54.90
2019-05-12T10:38:53.856Z,55.30
2019-05-12T10:41:24.786Z,54.80
2019-05-12T13:45:33.599Z,55.60
2019-05-12T13:48:09.454Z,66.10
2019-05-12T13:50:37.780Z,66.00
2019-05-12T13:53:10.401Z,66.10
2019-05-12T13:55:45.505Z,65.90
2019-05-12T13:58:14.229Z,65.70
2019-05-12T14:00:50.839Z,66.30
2019-05-12T14:03:17.916Z,66.60
2019-05-12T14:05:51.018Z,66.60
2019-05-12T14:08:23.810Z,67.00
2019-05-12T14:10:59.551Z,67.10
2019-05-12T14:13:28.144Z,66.60
2019-05-12T14:16:02.583Z,66.40
2019-05-12T14:18:33.075Z,66.70
2019-05-12T14:21:04.980Z,66.60
2019-05-12T14:23:35.910Z,67.20
2019-05-12T14:26:09.352Z,66.60
2019-05-12T14:28:45.607Z,66.80
2019-05-12T14:31:24.508Z,67.00
2019-05-12T14:33:45.786Z,66.60
2019-05-12T14:36:22.009Z,66.80
2019-05-12T14:38:49.178Z,66.60
2019-05-12T14:41:20.085Z,66.10
2019-05-12T14:43:53.496Z,66.80
2019-05-12T14:46:24.206Z,66.40
2019-05-12T14:48:55.621Z,65.10
2019-05-12T14:51:26.520Z,65.40
2019-05-12T14:53:57.594Z,66.00
2019-05-12T14:56:28.446Z,65.40
2019-05-12T14:59:00.724Z,64.80
2019-05-12T15:01:44.217Z,64.00
2019-05-12T15:04:05.226Z,64.50
2019-05-12T15:06:36.556Z,64.20
2019-05-12T15:09:11.545Z,63.80
2019-05-12T15:11:41.051Z,63.20
2019-05-12T15:14:13.783Z,63.80
2019-05-12T15:16:45.082Z,63.80
2019-05-12T15:19:20.775Z,64.40
2019-05-12T15:21:48.370Z,63.70
2019-05-12T15:24:19.691Z,64.10
2019-05-12T15:26:57.593Z,63.00
2019-05-12T15:29:23.696Z,62.90
2019-05-12T15:31:56.824Z,63.40
2019-05-12T15:34:28.529Z,63.00
2019-05-12T15:37:00.325Z,63.20
2019-05-12T15:39:33.458Z,63.00
2019-05-12T15:42:04.814Z,62.90
2019-05-12T15:44:38.597Z,62.70
2019-05-12T15:47:09.789Z,63.10
2019-05-12T15:49:40.674Z,63.10
2019-05-12T15:52:14.233Z,62.80
2019-05-12T15:54:47.166Z,62.00
2019-05-12T15:57:16.988Z,62.10
2019-05-12T15:59:48.366Z,62.30
2019-05-12T16:02:19.317Z,62.90
2019-05-12T16:09:54.102Z,63.30
2019-05-12T16:12:26.942Z,62.00
2019-05-12T16:14:57.001Z,61.80
2019-05-12T16:17:27.833Z,62.50
2019-05-12T16:19:59.022Z,62.20
2019-05-12T16:22:30.558Z,62.40
2019-05-12T16:25:04.282Z,62.10
2019-05-12T16:27:37.250Z,62.10
2019-05-12T16:30:08.363Z,61.90
2019-05-12T16:32:46.467Z,62.00
2019-05-12T16:35:14.491Z,62.40
2019-05-12T16:37:45.015Z,62.00
2019-05-12T16:40:16.236Z,62.30
2019-05-12T16:42:52.632Z,63.50
2019-05-12T16:45:20.231Z,63.30
2019-05-12T16:47:53.460Z,63.40
2019-05-12T16:50:27.683Z,61.90
2019-05-12T16:52:57.157Z,61.60
2019-05-12T16:55:28.593Z,62.00
2019-05-12T16:57:59.857Z,62.40
2019-05-12T17:00:33.798Z,62.10
2019-05-12T17:03:04.107Z,62.40
2019-05-12T17:05:35.483Z,62.80
2019-05-12T17:08:06.444Z,63.20
2019-05-12T17:10:38.645Z,63.40
2019-05-12T17:13:13.736Z,63.70
2019-05-12T17:15:48.821Z,64.00
2019-05-12T17:18:18.013Z,64.60
2019-05-12T17:20:51.019Z,64.70
2019-05-12T17:23:24.817Z,64.80
2019-05-12T17:25:55.373Z,65.50
2019-05-12T17:28:28.450Z,65.90
2019-05-12T17:31:03.957Z,66.30
2019-05-12T17:33:35.411Z,66.30
2019-05-12T17:36:24.241Z,66.40
2019-05-12T17:38:56.123Z,66.50
2019-05-12T17:41:31.576Z,67.30
2019-05-12T17:44:15.857Z,68.30
2019-05-12T17:46:47.042Z,68.40
2019-05-12T18:57:50.232Z,69.10
2019-05-12T19:00:23.843Z,80.70
2019-05-12T19:02:59.593Z,81.00
2019-05-12T19:05:30.937Z,81.20
2019-05-12T19:08:03.528Z,81.30
2019-05-12T19:10:38.435Z,81.40
2019-05-12T19:13:06.851Z,81.40
2019-05-12T19:15:38.336Z,82.00
2019-05-12T19:18:11.209Z,83.30
2019-05-12T19:20:48.093Z,82.70
2019-05-12T19:23:18.645Z,82.80
2019-05-12T19:25:50.393Z,83.10
2019-05-12T19:28:23.679Z,83.30
2019-05-12T19:30:54.765Z,83.80
2019-05-12T19:33:25.784Z,84.10
2019-05-12T19:36:04.388Z,85.40
2019-05-12T20:03:40.159Z,85.40
2019-05-12T20:06:13.387Z,90.50
2019-05-12T20:18:49.195Z,90.40
2019-05-12T20:21:26.151Z,90.40
2019-05-12T20:23:54.424Z,90.10
2019-05-12T20:26:25.380Z,90.00
2019-05-12T20:28:56.283Z,89.90
2019-05-12T20:31:27.957Z,90.00
2019-05-12T20:59:05.996Z,90.00
2019-05-12T21:09:10.201Z,87.00
2019-05-12T21:11:44.059Z,86.50
2019-05-12T21:14:14.787Z,86.00
2019-05-12T21:16:45.842Z,85.40
2019-05-12T21:19:16.721Z,84.50
2019-05-12T21:21:47.575Z,83.50
2019-05-12T21:24:18.449Z,82.80
2019-05-12T21:26:49.310Z,83.00
2019-05-12T21:34:25.540Z,82.90
2019-05-12T21:36:59.065Z,81.70
2019-05-12T21:39:29.634Z,81.50
2019-05-12T21:42:00.994Z,81.50
2019-05-12T21:44:32.288Z,82.10
2019-05-12T21:47:09.994Z,83.00
2019-05-12T22:09:46.872Z,82.80
2019-05-12T22:12:17.623Z,82.80
2019-05-12T22:14:48.528Z,83.20
2019-05-12T22:17:19.399Z,83.70
2019-05-12T22:27:27.256Z,84.40
2019-05-12T22:37:34.884Z,84.40
2019-05-12T22:40:06.291Z,88.20
2019-05-12T22:42:34.817Z,87.10
2019-05-12T22:45:06.332Z,86.80
2019-05-12T22:47:37.210Z,86.50
2019-05-12T22:55:10.461Z,86.50
2019-05-12T22:57:43.552Z,85.70
2019-05-12T23:00:19.302Z,86.50
2019-05-12T23:02:48.744Z,87.00
2019-05-12T23:05:20.570Z,86.70
2019-05-12T23:07:51.754Z,86.60
2019-05-12T23:10:24.322Z,86.70
2019-05-12T23:12:59.577Z,87.30
2019-05-12T23:15:28.067Z,87.50
2019-05-12T23:17:59.229Z,87.30
2019-05-12T23:20:31.124Z,87.10
2019-05-12T23:23:04.064Z,87.20
2019-05-12T23:25:36.236Z,87.10
2019-05-12T23:28:10.428Z,87.80
2019-05-12T23:30:43.720Z,87.70
2019-05-12T23:33:14.119Z,87.30
2019-05-12T23:35:45.566Z,87.00
2019-05-12T23:38:20.915Z,87.00
2019-05-12T23:40:49.376Z,87.30
2019-05-12T23:43:20.616Z,87.40
2019-05-12T23:45:53.300Z,87.50
2019-05-12T23:48:25.692Z,87.90
2019-05-12T23:50:56.505Z,88.00
2019-05-12T23:53:27.650Z,87.60
2019-05-12T23:58:29.102Z,87.30
